Time;durP1;ratioP1;P1;durP2;ratioP2;P2;SDS_P1;SDS_P2;PMS_P1;PMS_P2;Temp;Humidity;BMP_temperature;BMP_pressure;BME280_temperature;BME280_humidity;BME280_pressure;Samples;Min_cycle;Max_cycle;Signal;HPM_P1;HPM_P2
2022/07/15 00:02:07;;;;;;;4.50;2.70;;;18.80;99.90;;;;;;4932469;29;20445;-74
2022/07/15 00:04:33;;;;;;;5.03;2.80;;;18.70;99.90;;;;;;4933973;29;20679;-75
2022/07/15 00:06:59;;;;;;;2.80;2.50;;;18.60;99.90;;;;;;4933154;29;20422;-75
2022/07/15 00:10:13;;;;;;;6.40;2.70;;;18.60;99.90;;;;;;4933418;29;20425;-75
2022/07/15 00:12:11;;;;;;;4.07;3.03;;;18.50;99.90;;;;;;4934332;29;20201;-75
2022/07/15 00:14:37;;;;;;;4.13;2.70;;;18.40;99.90;;;;;;4933835;29;20552;-75
2022/07/15 00:17:03;;;;;;;4.47;3.20;;;18.30;99.90;;;;;;4932647;29;20426;-75
2022/07/15 00:19:28;;;;;;;4.03;2.83;;;18.20;99.90;;;;;;4933669;29;20809;-75
2022/07/15 00:21:54;;;;;;;6.20;2.87;;;18.10;99.90;;;;;;4932852;29;20264;-73
2022/07/15 00:24:19;;;;;;;6.27;3.30;;;18.00;99.90;;;;;;4933559;29;20189;-75
2022/07/15 00:26:45;;;;;;;5.17;2.83;;;17.90;99.90;;;;;;4933090;29;20184;-75
2022/07/15 00:29:11;;;;;;;7.07;2.90;;;17.90;99.90;;;;;;4932970;29;20181;-75
2022/07/15 00:31:36;;;;;;;3.47;3.17;;;17.90;99.90;;;;;;4931050;29;20216;-72
2022/07/15 00:34:02;;;;;;;5.10;3.30;;;17.90;99.90;;;;;;4931209;29;20208;-75
2022/07/15 00:36:28;;;;;;;3.90;3.60;;;17.80;99.90;;;;;;4933230;29;20546;-75
2022/07/15 00:38:54;;;;;;;3.73;3.37;;;17.80;99.90;;;;;;4932961;29;20417;-77
2022/07/15 00:41:19;;;;;;;3.17;2.97;;;17.80;99.90;;;;;;4932324;29;21016;-75
2022/07/15 00:43:45;;;;;;;4.73;3.40;;;17.70;99.90;;;;;;4933291;28;20249;-75
2022/07/15 00:46:18;;;;;;;3.50;2.87;;;17.60;99.90;;;;;;4932711;28;20212;-73
2022/07/15 00:48:44;;;;;;;3.07;2.83;;;17.60;99.90;;;;;;4933374;29;20857;-75
2022/07/15 00:51:10;;;;;;;3.87;3.57;;;17.50;99.90;;;;;;4931045;29;20488;-74
2022/07/15 00:53:37;;;;;;;4.17;2.87;;;17.50;99.90;;;;;;4933059;29;20177;-75
2022/07/15 00:56:06;;;;;;;7.67;3.00;;;17.40;99.90;;;;;;4933274;29;20272;-74
2022/07/15 00:58:36;;;;;;;4.83;2.50;;;17.40;99.90;;;;;;4913998;29;20426;-75
2022/07/15 02:31:39;;;;;;;3.50;2.77;;;15.40;99.90;;;;;;5753755;23;20506;-77
2022/07/15 02:34:04;;;;;;;3.40;3.10;;;15.30;99.90;;;;;;4970279;28;20483;-78
2022/07/15 02:36:30;;;;;;;3.47;3.27;;;15.20;99.90;;;;;;4973419;28;20307;-76
2022/07/15 02:38:56;;;;;;;4.23;3.70;;;15.20;99.90;;;;;;4973380;28;20412;-78
2022/07/15 02:41:23;;;;;;;6.10;3.23;;;15.10;99.90;;;;;;4966640;28;20226;-77
2022/07/15 02:43:49;;;;;;;4.60;3.70;;;15.10;99.90;;;;;;4954242;28;20428;-75
2022/07/15 02:46:15;;;;;;;7.93;3.10;;;15.00;99.90;;;;;;4952854;28;20807;-75
2022/07/15 02:48:41;;;;;;;6.03;3.40;;;15.00;99.90;;;;;;4953321;28;20412;-77
2022/07/15 02:51:06;;;;;;;5.10;3.87;;;15.00;99.90;;;;;;4955905;28;20197;-76
2022/07/15 02:53:33;;;;;;;6.33;3.80;;;14.90;99.90;;;;;;4958090;28;20267;-76
2022/07/15 02:56:00;;;;;;;3.67;3.37;;;14.90;99.90;;;;;;4958121;28;20203;-76
2022/07/15 02:58:26;;;;;;;2.90;2.70;;;14.90;99.90;;;;;;4958414;28;20416;-77
2022/07/15 03:00:52;;;;;;;3.33;3.03;;;14.80;99.90;;;;;;4957859;28;20427;-75
2022/07/15 03:03:18;;;;;;;7.07;3.20;;;14.80;99.90;;;;;;4957173;28;20408;-74
2022/07/15 03:05:44;;;;;;;7.63;3.70;;;14.80;99.90;;;;;;4958351;28;20187;-74
2022/07/15 03:08:10;;;;;;;4.60;4.13;;;14.70;99.90;;;;;;4957999;28;20881;-76
2022/07/15 03:10:36;;;;;;;5.67;3.33;;;14.70;99.90;;;;;;4958144;28;20672;-75
2022/07/15 03:13:01;;;;;;;6.27;3.13;;;14.70;99.90;;;;;;4956819;28;20419;-76
2022/07/15 03:15:27;;;;;;;5.63;3.10;;;14.70;99.90;;;;;;4956854;29;20632;-77
2022/07/15 03:17:52;;;;;;;4.93;3.30;;;14.60;99.90;;;;;;4958424;28;20186;-76
2022/07/15 03:20:18;;;;;;;3.10;2.90;;;14.60;99.90;;;;;;4957920;28;20176;-76
2022/07/15 03:22:43;;;;;;;6.13;2.90;;;14.50;99.90;;;;;;4957458;28;20193;-77
2022/07/15 03:25:09;;;;;;;3.80;3.13;;;14.50;99.90;;;;;;4955824;28;20650;-75
2022/07/15 03:27:35;;;;;;;3.20;3.00;;;14.40;99.90;;;;;;4957259;28;20191;-76
2022/07/15 03:30:01;;;;;;;6.67;3.30;;;14.40;99.90;;;;;;4957226;28;20536;-77
2022/07/15 03:32:27;;;;;;;4.27;2.90;;;14.40;99.90;;;;;;4956105;28;20231;-77
2022/07/15 03:34:52;;;;;;;8.23;3.10;;;14.40;99.90;;;;;;4956438;28;20527;-77
2022/07/15 03:37:18;;;;;;;3.57;3.27;;;14.40;99.90;;;;;;4956522;28;20173;-77
2022/07/15 03:39:44;;;;;;;3.97;3.10;;;14.30;99.90;;;;;;4956752;28;20657;-75
2022/07/15 03:42:10;;;;;;;4.67;3.20;;;14.30;99.90;;;;;;4955747;28;20758;-74
2022/07/15 03:44:36;;;;;;;5.80;3.23;;;14.30;99.90;;;;;;4956148;28;20508;-76
2022/07/15 03:47:01;;;;;;;4.53;3.43;;;14.30;99.90;;;;;;4955788;28;20211;-76
2022/07/15 03:49:27;;;;;;;5.23;3.17;;;14.30;99.90;;;;;;4956252;28;20215;-76
2022/07/15 03:51:53;;;;;;;3.43;2.90;;;14.30;99.90;;;;;;4955908;28;20208;-77
2022/07/15 03:54:19;;;;;;;3.87;2.93;;;14.20;99.90;;;;;;4956233;28;20507;-77
2022/07/15 03:56:47;;;;;;;3.40;3.13;;;14.20;99.90;;;;;;4956018;28;20412;-76
2022/07/15 03:59:14;;;;;;;3.23;3.03;;;14.20;99.90;;;;;;4955816;28;20180;-76
2022/07/15 04:01:40;;;;;;;7.83;3.63;;;14.20;99.90;;;;;;4955073;28;20854;-78
2022/07/15 04:04:05;;;;;;;5.27;3.10;;;14.20;99.90;;;;;;4954939;28;20459;-75
2022/07/15 04:06:32;;;;;;;4.50;2.83;;;14.20;99.90;;;;;;4954628;28;20684;-73
2022/07/15 04:08:58;;;;;;;3.63;2.70;;;14.20;99.90;;;;;;4955382;28;20749;-75
2022/07/15 04:11:24;;;;;;;3.40;3.10;;;14.20;99.90;;;;;;4953960;28;20523;-74
2022/07/15 04:13:50;;;;;;;3.50;3.20;;;14.30;99.90;;;;;;4954237;28;20189;-71
2022/07/15 04:16:15;;;;;;;4.40;3.40;;;14.30;99.90;;;;;;4954473;28;20468;-75
2022/07/15 04:18:41;;;;;;;6.23;3.50;;;14.40;99.90;;;;;;4954673;28;20179;-74
2022/07/15 04:21:07;;;;;;;4.30;3.20;;;14.40;99.90;;;;;;4952894;28;20282;-75
2022/07/15 04:23:32;;;;;;;4.30;3.20;;;14.50;99.90;;;;;;4954014;28;20243;-73
2022/07/15 04:25:58;;;;;;;4.40;3.60;;;14.50;99.90;;;;;;4954092;28;20181;-74
2022/07/15 04:28:24;;;;;;;3.33;2.57;;;14.60;99.90;;;;;;4954406;28;20181;-75
2022/07/15 04:30:53;;;;;;;4.00;3.60;;;14.60;99.90;;;;;;4952745;28;20184;-73
2022/07/15 04:33:19;;;;;;;6.23;3.20;;;14.70;99.90;;;;;;4954107;28;20432;-75
2022/07/15 04:35:46;;;;;;;4.10;2.70;;;14.90;99.90;;;;;;4954227;28;20975;-75
2022/07/15 04:38:11;;;;;;;4.60;3.63;;;15.00;99.90;;;;;;4954080;28;20408;-75
2022/07/15 04:40:39;;;;;;;6.30;3.40;;;15.10;99.90;;;;;;4953112;28;20430;-74
2022/07/15 04:43:05;;;;;;;3.60;3.10;;;15.10;99.90;;;;;;4952038;28;20274;-74
2022/07/15 04:45:31;;;;;;;3.50;3.20;;;15.20;99.90;;;;;;4953761;28;20503;-74
2022/07/15 04:47:57;;;;;;;6.57;3.03;;;15.30;99.90;;;;;;4954376;28;20417;-74
2022/07/15 04:53:07;;;;;;;4.93;3.37;;;15.50;99.90;;;;;;4953454;29;20192;-74
2022/07/15 04:55:33;;;;;;;4.10;2.60;;;15.50;99.90;;;;;;4952909;28;20471;-74
2022/07/15 04:57:58;;;;;;;4.60;3.43;;;15.60;99.90;;;;;;4953862;28;20420;-73
2022/07/15 05:00:24;;;;;;;4.20;3.07;;;15.70;99.90;;;;;;4954516;28;20429;-72
2022/07/15 05:02:50;;;;;;;4.60;3.10;;;15.70;99.90;;;;;;4952994;28;20294;-72
2022/07/15 05:05:15;;;;;;;4.23;2.83;;;15.80;99.90;;;;;;4953621;28;20282;-74
2022/07/15 05:07:41;;;;;;;6.30;3.10;;;15.90;99.90;;;;;;4953255;28;20177;-74
2022/07/15 05:10:08;;;;;;;5.10;3.17;;;16.00;99.90;;;;;;4953625;28;20658;-75
2022/07/15 05:12:34;;;;;;;8.20;3.10;;;16.20;99.90;;;;;;4951920;28;20211;-74
2022/07/15 05:14:59;;;;;;;9.93;3.03;;;16.50;99.90;;;;;;4953082;28;20968;-74
2022/07/15 05:17:25;;;;;;;2.90;2.63;;;17.00;99.90;;;;;;4952774;28;20211;-74
2022/07/15 05:19:52;;;;;;;6.13;2.80;;;17.50;99.90;;;;;;4953166;28;20177;-73
2022/07/15 05:22:18;;;;;;;6.20;3.90;;;18.00;99.90;;;;;;4952340;28;20248;-74
2022/07/15 05:24:44;;;;;;;5.97;3.07;;;18.50;99.90;;;;;;4952789;28;20409;-75
2022/07/15 05:27:10;;;;;;;4.13;3.73;;;18.80;99.90;;;;;;4952749;28;20929;-72
2022/07/15 05:29:35;;;;;;;3.20;2.80;;;19.20;99.90;;;;;;4952780;28;20506;-76
2022/07/15 05:32:01;;;;;;;8.47;3.33;;;19.70;99.90;;;;;;4952099;28;20534;-75
2022/07/15 05:34:26;;;;;;;3.33;2.83;;;20.10;99.90;;;;;;4948962;28;20303;-75
2022/07/15 05:36:52;;;;;;;6.27;3.30;;;20.30;99.90;;;;;;4952167;28;20673;-75
2022/07/15 05:39:17;;;;;;;5.57;3.20;;;20.80;99.90;;;;;;4952277;28;20238;-75
2022/07/15 05:41:43;;;;;;;5.63;3.13;;;21.10;99.90;;;;;;4952245;28;20345;-76
2022/07/15 05:44:08;;;;;;;6.13;3.00;;;21.50;99.90;;;;;;4952740;28;20223;-76
2022/07/15 05:46:34;;;;;;;10.00;3.00;;;21.90;99.90;;;;;;4951663;28;20231;-75
2022/07/15 05:48:59;;;;;;;5.90;3.70;;;22.10;99.90;;;;;;4951325;28;20231;-74
2022/07/15 05:51:26;;;;;;;3.30;2.30;;;22.10;99.90;;;;;;4951637;28;20293;-76
2022/07/15 05:53:51;;;;;;;10.53;3.50;;;22.50;99.90;;;;;;4952624;28;20503;-75
2022/07/15 05:56:17;;;;;;;3.10;2.83;;;22.80;99.90;;;;;;4952640;28;20177;-76
2022/07/15 05:58:42;;;;;;;9.33;2.97;;;22.90;99.90;;;;;;4952403;28;20188;-76
2022/07/15 06:01:07;;;;;;;3.50;2.47;;;23.20;99.90;;;;;;4952070;28;20203;-76
2022/07/15 06:03:33;;;;;;;3.90;2.47;;;23.20;99.90;;;;;;4952653;28;20689;-76
2022/07/15 06:05:59;;;;;;;5.03;2.77;;;23.40;99.90;;;;;;4952776;28;20265;-75
2022/07/15 06:08:25;;;;;;;4.10;2.70;;;23.60;99.90;;;;;;4953566;28;20177;-74
2022/07/15 06:10:50;;;;;;;7.50;2.97;;;23.70;99.90;;;;;;4952664;28;20188;-73
2022/07/15 06:13:16;;;;;;;5.67;2.60;;;23.80;99.90;;;;;;4953199;28;20188;-76
2022/07/15 06:15:41;;;;;;;5.63;2.97;;;24.00;99.90;;;;;;4952791;28;20212;-76
2022/07/15 06:18:07;;;;;;;6.00;2.60;;;24.20;99.90;;;;;;4952565;28;20196;-76
2022/07/15 06:20:33;;;;;;;8.27;3.07;;;24.30;99.90;;;;;;4950952;28;20208;-74
2022/07/15 06:22:58;;;;;;;3.40;2.93;;;24.50;99.90;;;;;;4952429;28;20208;-75
2022/07/15 06:25:24;;;;;;;5.63;2.80;;;24.60;99.90;;;;;;4950662;28;20185;-76
2022/07/15 06:27:49;;;;;;;10.23;3.67;;;24.80;99.90;;;;;;4952330;28;20657;-76
2022/07/15 06:30:15;;;;;;;3.43;2.63;;;24.50;99.90;;;;;;4952372;28;20657;-76
2022/07/15 06:32:41;;;;;;;10.87;3.37;;;24.70;99.90;;;;;;4950349;28;20760;-74
2022/07/15 06:35:07;;;;;;;4.60;2.57;;;25.20;99.90;;;;;;4951896;28;20206;-75
2022/07/15 06:37:33;;;;;;;5.70;3.23;;;25.20;99.90;;;;;;4950532;28;20188;-74
2022/07/15 06:39:59;;;;;;;1.90;1.80;;;25.20;99.90;;;;;;4951800;28;20420;-76
2022/07/15 06:42:24;;;;;;;5.80;2.70;;;25.50;99.90;;;;;;4951121;28;20291;-74
2022/07/15 06:44:50;;;;;;;2.87;1.80;;;25.60;99.90;;;;;;4952160;28;20507;-73
2022/07/15 06:47:15;;;;;;;5.30;2.50;;;25.80;99.90;;;;;;4951876;28;20605;-74
2022/07/15 06:49:41;;;;;;;2.03;1.50;;;25.80;99.90;;;;;;4951988;28;20180;-75
2022/07/15 06:52:07;;;;;;;6.77;1.77;;;25.70;99.90;;;;;;4950696;28;20200;-75
2022/07/15 06:54:32;;;;;;;1.97;1.57;;;25.70;99.90;;;;;;4951921;28;20278;-75
2022/07/15 06:56:59;;;;;;;3.43;2.40;;;25.90;99.90;;;;;;4948857;28;20185;-75
2022/07/15 06:59:25;;;;;;;4.23;1.73;;;26.10;99.90;;;;;;4947600;28;20204;-75
2022/07/15 07:01:52;;;;;;;5.40;1.47;;;26.40;99.90;;;;;;4950349;28;20448;-74
2022/07/15 07:04:17;;;;;;;4.10;1.70;;;26.10;97.60;;;;;;4951667;28;20420;-75
2022/07/15 07:06:43;;;;;;;4.63;1.73;;;25.90;99.70;;;;;;4951974;28;20503;-75
2022/07/15 07:09:08;;;;;;;4.40;1.47;;;26.20;98.00;;;;;;4951884;28;20180;-75
2022/07/15 07:11:34;;;;;;;3.20;1.87;;;26.30;98.40;;;;;;4950836;28;20208;-75
2022/07/15 07:14:00;;;;;;;3.00;1.80;;;26.60;97.60;;;;;;4951215;28;20268;-77
2022/07/15 07:16:26;;;;;;;3.17;1.80;;;27.00;98.00;;;;;;4951755;28;20252;-75
2022/07/15 07:18:52;;;;;;;1.93;1.83;;;27.00;97.80;;;;;;4951913;28;20292;-73
2022/07/15 07:21:18;;;;;;;2.63;1.67;;;27.10;95.10;;;;;;4950785;28;20232;-75
2022/07/15 07:23:44;;;;;;;6.13;1.77;;;27.00;93.20;;;;;;4951700;28;20514;-74
2022/07/15 07:26:11;;;;;;;4.20;1.67;;;27.00;93.10;;;;;;4951723;28;20479;-73
2022/07/15 07:28:39;;;;;;;2.93;1.40;;;26.80;93.80;;;;;;4951599;28;20420;-75
2022/07/15 07:31:08;;;;;;;3.47;1.60;;;26.70;93.00;;;;;;4951113;28;20828;-75
2022/07/15 07:33:34;;;;;;;3.63;1.57;;;26.80;95.20;;;;;;4951469;28;20416;-75
2022/07/15 07:36:00;;;;;;;4.13;1.57;;;27.10;94.30;;;;;;4951729;28;20563;-76
2022/07/15 07:38:26;;;;;;;3.10;1.53;;;27.20;93.20;;;;;;4955315;28;20420;-75
2022/07/15 07:40:52;;;;;;;1.87;1.50;;;27.40;92.70;;;;;;4955074;28;20181;-76
2022/07/15 07:43:18;;;;;;;2.27;1.93;;;27.30;91.90;;;;;;4954747;28;20184;-76
2022/07/15 07:45:47;;;;;;;5.53;1.53;;;27.70;91.50;;;;;;4955372;28;20503;-78
2022/07/15 07:48:13;;;;;;;2.40;1.30;;;27.90;91.60;;;;;;4954332;28;20471;-75
2022/07/15 07:50:39;;;;;;;3.03;1.30;;;27.90;90.90;;;;;;4954470;28;20444;-77
2022/07/15 07:53:05;;;;;;;6.43;1.40;;;28.10;90.40;;;;;;4954672;28;20192;-76
2022/07/15 07:55:31;;;;;;;4.33;1.40;;;28.10;88.10;;;;;;4954347;28;20476;-75
2022/07/15 07:57:58;;;;;;;1.53;1.30;;;27.90;85.10;;;;;;4954666;28;20408;-76
2022/07/15 08:00:26;;;;;;;2.50;2.30;;;27.80;87.10;;;;;;4953944;28;20172;-74
2022/07/15 08:02:52;;;;;;;5.83;1.40;;;27.50;87.10;;;;;;4954001;28;20451;-75
2022/07/15 08:05:18;;;;;;;2.73;1.27;;;27.20;89.00;;;;;;4954708;28;20901;-76
2022/07/15 08:07:44;;;;;;;4.70;1.60;;;27.10;87.20;;;;;;4954697;28;20412;-76
2022/07/15 08:10:11;;;;;;;1.33;1.23;;;27.10;84.80;;;;;;4954738;28;20188;-77
2022/07/15 08:12:37;;;;;;;1.73;1.37;;;27.30;85.80;;;;;;4953726;28;20235;-77
2022/07/15 08:15:08;;;;;;;2.30;1.77;;;27.30;86.50;;;;;;4954089;28;20468;-76
2022/07/15 08:17:34;;;;;;;5.20;1.47;;;27.40;85.20;;;;;;4954233;28;20467;-76
2022/07/15 08:20:00;;;;;;;7.03;1.73;;;27.60;84.10;;;;;;4954594;28;20416;-76
2022/07/15 08:22:26;;;;;;;3.50;1.70;;;27.70;84.80;;;;;;4953098;28;20203;-76
2022/07/15 08:24:51;;;;;;;2.83;1.60;;;27.70;84.20;;;;;;4954218;28;20952;-74
2022/07/15 08:27:17;;;;;;;2.87;1.80;;;27.80;85.50;;;;;;4952880;28;20247;-77
2022/07/15 08:29:43;;;;;;;2.50;1.40;;;28.40;86.10;;;;;;4953317;28;20189;-76
2022/07/15 08:32:09;;;;;;;3.53;1.23;;;28.80;83.20;;;;;;4949482;28;20482;-75
2022/07/15 08:34:34;;;;;;;5.53;1.80;;;28.90;84.20;;;;;;4953847;28;20561;-76
2022/07/15 08:37:00;;;;;;;2.53;1.60;;;29.10;82.30;;;;;;4962397;28;20188;-77
2022/07/15 08:39:26;;;;;;;4.03;1.40;;;29.40;81.00;;;;;;4962185;28;20177;-77
2022/07/15 08:41:52;;;;;;;6.07;5.33;;;29.80;81.20;;;;;;4952847;28;20718;-76
2022/07/15 08:44:18;;;;;;;3.87;1.33;;;29.90;78.10;;;;;;4952294;28;20207;-77
2022/07/15 08:46:47;;;;;;;8.80;1.50;;;30.20;78.00;;;;;;4969399;28;20424;-76
2022/07/15 08:49:15;;;;;;;1.30;1.20;;;30.10;78.70;;;;;;4962281;28;20188;-75
2022/07/15 08:51:46;;;;;;;3.40;1.30;;;30.50;78.40;;;;;;4952983;28;20456;-76
2022/07/15 08:54:14;;;;;;;4.00;1.60;;;30.60;76.30;;;;;;4952772;28;20467;-75
2022/07/15 08:56:39;;;;;;;2.50;1.77;;;30.30;77.30;;;;;;4952991;28;20424;-77
2022/07/15 08:59:06;;;;;;;3.83;1.60;;;30.70;77.90;;;;;;4953227;28;20470;-77
2022/07/15 09:01:34;;;;;;;4.10;1.60;;;30.40;77.00;;;;;;4943431;28;20219;-76
2022/07/15 09:04:00;;;;;;;2.70;1.57;;;30.30;76.20;;;;;;4946840;28;20917;-77
2022/07/15 09:06:43;;;;;;;3.10;1.97;;;30.70;75.80;;;;;;4953051;29;20425;-77
2022/07/15 09:09:22;;;;;;;6.60;1.60;;;30.20;75.50;;;;;;4953029;28;20515;-76
2022/07/15 09:11:54;;;;;;;2.37;1.77;;;29.80;76.50;;;;;;4953517;28;20451;-76
2022/07/15 09:14:21;;;;;;;2.37;1.30;;;29.30;75.00;;;;;;4952786;28;20468;-76
2022/07/15 09:16:46;;;;;;;4.70;1.40;;;29.50;76.50;;;;;;4953334;28;20983;-76
2022/07/15 09:19:12;;;;;;;9.20;1.60;;;30.10;75.30;;;;;;4952838;28;20420;-76
2022/07/15 09:21:42;;;;;;;3.10;1.50;;;30.40;74.50;;;;;;4952267;28;20347;-76
2022/07/15 09:24:20;;;;;;;2.10;1.23;;;30.20;73.20;;;;;;4952648;28;20204;-76
2022/07/15 09:26:46;;;;;;;4.60;1.77;;;29.60;73.20;;;;;;4953043;28;20419;-76
2022/07/15 09:35:01;;;;;;;1.97;1.30;;;30.50;75.70;;;;;;4957947;28;20478;-76
2022/07/15 09:37:27;;;;;;;4.20;2.07;;;30.70;74.90;;;;;;4952274;28;20439;-77
2022/07/15 09:39:55;;;;;;;2.00;1.37;;;30.80;72.40;;;;;;4950941;28;20523;-76
2022/07/15 09:42:21;;;;;;;3.10;1.47;;;31.40;73.70;;;;;;4959061;28;20447;-75
2022/07/15 09:44:46;;;;;;;2.67;2.00;;;31.50;72.00;;;;;;4948623;28;20502;-76
2022/07/15 09:47:19;;;;;;;3.43;1.80;;;31.80;70.50;;;;;;4957327;28;20197;-74
2022/07/15 09:49:45;;;;;;;5.67;1.93;;;32.00;70.80;;;;;;4960319;28;20291;-76
2022/07/15 09:52:14;;;;;;;2.50;1.77;;;32.00;70.80;;;;;;4950846;28;20459;-76
2022/07/15 09:54:43;;;;;;;5.17;1.47;;;32.30;69.80;;;;;;4952304;28;20862;-77
2022/07/15 09:57:17;;;;;;;1.63;1.53;;;32.50;68.40;;;;;;4952572;28;20828;-77
2022/07/15 09:59:48;;;;;;;3.20;1.40;;;32.60;69.90;;;;;;4951218;28;20427;-77
2022/07/15 10:02:15;;;;;;;2.43;1.70;;;32.60;70.00;;;;;;4951689;28;20444;-77
2022/07/15 10:04:41;;;;;;;2.47;1.60;;;33.10;68.10;;;;;;4951150;28;20467;-76
2022/07/15 10:07:07;;;;;;;2.30;1.50;;;33.20;67.80;;;;;;4945529;29;20847;-77
2022/07/15 10:09:36;;;;;;;1.93;1.57;;;33.70;69.70;;;;;;4941052;28;20196;-76
2022/07/15 10:12:12;;;;;;;6.37;1.43;;;33.50;65.80;;;;;;4945117;28;20491;-78
2022/07/15 10:14:53;;;;;;;1.73;1.17;;;33.60;66.90;;;;;;4948784;28;20526;-76
2022/07/15 10:17:31;;;;;;;5.03;1.77;;;33.70;64.80;;;;;;4949389;28;20425;-77
2022/07/15 10:20:17;;;;;;;2.13;1.40;;;33.40;64.80;;;;;;4941027;29;20976;-77
2022/07/15 10:23:07;;;;;;;2.13;1.40;;;33.70;66.20;;;;;;4951644;28;20455;-77
2022/07/15 10:25:51;;;;;;;4.13;2.10;;;33.60;66.70;;;;;;4952289;28;20851;-77
2022/07/15 10:28:54;;;;;;;4.33;1.77;;;33.30;64.50;;;;;;4951773;28;20420;-76
2022/07/15 10:31:29;;;;;;;3.33;1.83;;;33.10;65.70;;;;;;4951622;28;20459;-77
2022/07/15 10:34:06;;;;;;;2.10;1.40;;;33.50;64.90;;;;;;4952702;28;20432;-77
2022/07/15 10:36:47;;;;;;;3.40;1.97;;;33.70;63.70;;;;;;4951804;28;20503;-76
2022/07/15 10:39:14;;;;;;;3.03;1.80;;;33.10;63.40;;;;;;4952388;28;20416;-76
2022/07/15 10:41:56;;;;;;;2.27;1.47;;;32.70;64.50;;;;;;4951435;28;20448;-76
2022/07/15 10:44:22;;;;;;;8.33;2.60;;;32.60;66.90;;;;;;4952246;28;20527;-77
2022/07/15 10:47:14;;;;;;;3.53;1.50;;;32.70;66.10;;;;;;4952173;28;20794;-76
2022/07/15 10:49:50;;;;;;;1.87;1.37;;;32.70;66.90;;;;;;4963608;28;20420;-76
2022/07/15 10:52:18;;;;;;;2.30;1.60;;;33.20;67.40;;;;;;4954378;28;20965;-77
2022/07/15 10:54:46;;;;;;;2.23;1.70;;;33.50;66.30;;;;;;4952165;28;20562;-76
2022/07/15 10:57:16;;;;;;;5.53;1.67;;;33.40;68.10;;;;;;4951880;28;20432;-76
2022/07/15 10:59:55;;;;;;;1.60;1.50;;;33.40;64.40;;;;;;4951368;28;20476;-76
2022/07/15 11:02:23;;;;;;;2.83;2.10;;;33.20;64.00;;;;;;4951329;28;20452;-76
2022/07/15 11:04:51;;;;;;;3.13;1.83;;;33.10;62.80;;;;;;4952064;28;20441;-76
2022/07/15 11:07:16;;;;;;;1.80;1.60;;;33.10;64.20;;;;;;4952178;28;20915;-76
2022/07/15 11:09:52;;;;;;;3.40;2.70;;;32.80;64.10;;;;;;4951636;28;20417;-76
2022/07/15 11:12:28;;;;;;;2.70;1.43;;;32.00;64.80;;;;;;4953305;28;20292;-76
2022/07/15 11:15:17;;;;;;;5.10;1.87;;;32.00;65.30;;;;;;4955674;28;20463;-76
2022/07/15 11:17:49;;;;;;;6.00;2.30;;;31.80;66.50;;;;;;4949069;28;20419;-76
2022/07/15 11:20:41;;;;;;;1.87;1.77;;;31.70;66.40;;;;;;4955321;28;20415;-74
2022/07/15 11:23:07;;;;;;;4.90;2.20;;;31.70;69.00;;;;;;4934224;29;20421;-76
2022/07/15 11:25:37;;;;;;;2.80;1.73;;;31.60;65.40;;;;;;4952189;29;20785;-75
2022/07/15 11:28:05;;;;;;;5.03;1.70;;;31.50;68.00;;;;;;4955343;28;20475;-76
2022/07/15 11:30:54;;;;;;;7.30;2.43;;;31.30;68.30;;;;;;4954387;28;20416;-75
2022/07/15 11:33:25;;;;;;;4.97;2.03;;;31.20;68.20;;;;;;4935763;28;20420;-77
2022/07/15 11:35:55;;;;;;;5.63;2.13;;;31.20;67.00;;;;;;4954187;29;20463;-75
2022/07/15 11:38:23;;;;;;;5.50;2.00;;;31.00;69.60;;;;;;4955166;28;20898;-76
2022/07/15 11:46:22;;;;;;;3.67;2.37;;;31.00;69.70;;;;;;4942545;29;20442;-72
2022/07/15 11:48:49;;;;;;;1.97;1.70;;;30.40;67.10;;;;;;4954690;28;20417;-72
2022/07/15 11:51:15;;;;;;;4.77;2.10;;;29.90;68.00;;;;;;4953671;28;20535;-72
2022/07/15 11:53:43;;;;;;;5.23;2.27;;;29.80;71.10;;;;;;4954161;28;20424;-76
2022/07/15 11:56:10;;;;;;;3.83;2.17;;;30.00;71.10;;;;;;4954534;28;20468;-76
2022/07/15 11:58:43;;;;;;;4.70;2.00;;;30.10;71.30;;;;;;4954638;28;20412;-76
2022/07/15 12:01:14;;;;;;;5.13;1.97;;;30.10;71.00;;;;;;4952429;28;20457;-75
2022/07/15 12:03:42;;;;;;;1.83;1.63;;;30.10;71.20;;;;;;4962860;28;20947;-76
2022/07/15 12:06:17;;;;;;;4.10;1.70;;;30.10;67.90;;;;;;4968437;28;20924;-75
2022/07/15 12:08:49;;;;;;;2.43;1.83;;;29.70;69.70;;;;;;4954187;28;20538;-74
2022/07/15 12:11:30;;;;;;;5.70;2.07;;;29.50;71.70;;;;;;4950711;28;20953;-75
2022/07/15 12:14:00;;;;;;;3.73;1.90;;;29.60;73.20;;;;;;4954385;28;20523;-76
2022/07/15 12:16:31;;;;;;;1.90;1.80;;;29.70;69.50;;;;;;4953173;29;20420;-75
2022/07/15 12:19:05;;;;;;;4.50;1.80;;;29.50;71.10;;;;;;4953282;28;20421;-75
2022/07/15 12:21:32;;;;;;;3.20;1.97;;;29.40;70.90;;;;;;4963484;28;20435;-75
2022/07/15 12:24:06;;;;;;;6.13;2.50;;;29.50;74.20;;;;;;4967991;28;20407;-75
2022/07/15 12:26:34;;;;;;;2.23;2.07;;;29.30;73.20;;;;;;4956061;28;20423;-74
2022/07/15 12:29:02;;;;;;;2.73;2.53;;;29.50;73.70;;;;;;4958897;28;20409;-74
2022/07/15 12:31:30;;;;;;;13.83;2.53;;;29.30;72.30;;;;;;4957441;28;20459;-75
2022/07/15 12:33:55;;;;;;;3.03;1.90;;;29.00;71.60;;;;;;4962398;28;20498;-74
2022/07/15 12:36:26;;;;;;;4.90;2.37;;;28.60;73.60;;;;;;4966264;28;20575;-78
2022/07/15 12:39:21;;;;;;;2.40;1.73;;;28.60;74.30;;;;;;4952937;28;20543;-73
2022/07/15 12:42:01;;;;;;;4.20;2.20;;;28.60;77.30;;;;;;4938195;28;20452;-73
2022/07/15 12:44:27;;;;;;;3.97;1.87;;;28.80;75.80;;;;;;4953687;28;21820;-72
2022/07/15 12:46:57;;;;;;;3.63;2.10;;;28.70;74.60;;;;;;4953372;28;20879;-76
2022/07/15 12:49:38;;;;;;;5.83;2.30;;;28.70;73.60;;;;;;4953380;28;20435;-77
2022/07/15 12:52:13;;;;;;;3.63;2.10;;;28.60;72.70;;;;;;4953342;28;20448;-77
2022/07/15 12:54:38;;;;;;;2.80;1.80;;;28.50;74.00;;;;;;4950688;28;20466;-76
2022/07/15 12:57:04;;;;;;;6.00;2.03;;;28.50;74.40;;;;;;4953380;28;20433;-71
2022/07/15 12:59:29;;;;;;;3.13;2.03;;;28.60;75.10;;;;;;4954189;28;20183;-70
2022/07/15 13:02:02;;;;;;;2.67;1.70;;;28.70;75.20;;;;;;4954027;28;20685;-75
2022/07/15 13:04:28;;;;;;;2.40;2.20;;;28.60;75.20;;;;;;4957496;28;20176;-74
2022/07/15 13:06:54;;;;;;;2.03;1.80;;;28.70;75.00;;;;;;4957950;28;20940;-75
2022/07/15 13:09:19;;;;;;;7.33;2.30;;;28.70;75.20;;;;;;4881437;28;20463;-75
2022/07/15 13:11:46;;;;;;;3.23;1.93;;;28.80;74.60;;;;;;4848326;28;20668;-74
2022/07/15 13:14:12;;;;;;;2.83;2.33;;;28.40;75.20;;;;;;4940304;28;20232;-75
2022/07/15 13:16:37;;;;;;;3.33;2.20;;;28.40;75.80;;;;;;4952787;28;20881;-75
2022/07/15 13:19:03;;;;;;;3.40;1.77;;;28.40;73.80;;;;;;4951932;28;20702;-74
2022/07/15 13:21:28;;;;;;;2.40;1.83;;;28.30;74.50;;;;;;4951541;28;20331;-74
2022/07/15 13:23:54;;;;;;;3.33;2.20;;;28.50;75.20;;;;;;4952406;28;20724;-72
2022/07/15 13:26:19;;;;;;;4.33;1.97;;;28.60;76.20;;;;;;4951794;28;20196;-72
2022/07/15 13:28:45;;;;;;;6.27;2.30;;;28.50;74.50;;;;;;4952252;28;20717;-72
2022/07/15 13:31:10;;;;;;;5.20;2.50;;;28.60;72.90;;;;;;4950624;28;20319;-72
2022/07/15 13:33:36;;;;;;;2.60;2.40;;;28.50;74.90;;;;;;4951174;28;20748;-72
2022/07/15 13:36:03;;;;;;;5.80;1.70;;;28.50;74.20;;;;;;4950825;28;20224;-72
2022/07/15 13:38:29;;;;;;;3.33;1.57;;;28.50;74.10;;;;;;4951669;28;20239;-73
2022/07/15 13:40:54;;;;;;;3.87;2.20;;;28.50;75.10;;;;;;4950723;28;20484;-72
2022/07/15 13:43:20;;;;;;;2.50;1.90;;;28.50;73.80;;;;;;4951762;28;20256;-72
2022/07/15 13:45:45;;;;;;;1.83;1.70;;;28.60;74.50;;;;;;4951964;28;20267;-73
2022/07/15 13:48:11;;;;;;;7.43;1.97;;;28.30;73.70;;;;;;4947512;28;20706;-72
2022/07/15 13:53:20;;;;;;;7.90;2.00;;;28.20;76.00;;;;;;4942269;28;20267;-72
2022/07/15 13:55:46;;;;;;;2.33;2.00;;;28.40;75.40;;;;;;4940550;28;20492;-73
2022/07/15 13:58:11;;;;;;;2.67;2.17;;;28.50;75.40;;;;;;4941545;28;20204;-72
2022/07/15 14:00:39;;;;;;;2.03;1.83;;;28.70;75.00;;;;;;4942475;28;20209;-72
2022/07/15 14:03:05;;;;;;;3.53;2.87;;;28.60;75.40;;;;;;4939355;28;20197;-73
2022/07/15 14:05:30;;;;;;;3.57;2.07;;;28.60;74.60;;;;;;4953846;28;20809;-73
2022/07/15 14:07:56;;;;;;;5.90;1.83;;;28.30;74.90;;;;;;4945921;28;20192;-70
2022/07/15 14:10:22;;;;;;;3.93;1.80;;;28.20;75.70;;;;;;4950514;28;20233;-71
2022/07/15 14:12:47;;;;;;;3.50;2.30;;;28.10;76.10;;;;;;4944677;28;20259;-73
2022/07/15 14:15:13;;;;;;;3.83;1.97;;;28.10;76.30;;;;;;4950810;28;20290;-72
2022/07/15 14:17:38;;;;;;;4.00;2.27;;;28.00;75.70;;;;;;4951141;28;20567;-73
2022/07/15 14:20:04;;;;;;;6.50;2.70;;;27.80;74.50;;;;;;4951676;28;20219;-72
2022/07/15 14:22:31;;;;;;;4.07;2.10;;;27.70;74.30;;;;;;4950953;28;20208;-74
2022/07/15 14:24:57;;;;;;;7.00;2.27;;;27.60;78.30;;;;;;4951881;28;20456;-72
2022/07/15 14:27:23;;;;;;;2.20;2.10;;;27.50;76.60;;;;;;4951475;28;20954;-73
2022/07/15 14:29:48;;;;;;;2.30;1.70;;;27.40;75.90;;;;;;4951801;28;20278;-73
2022/07/15 14:32:14;;;;;;;8.47;2.03;;;27.30;75.80;;;;;;4949399;28;20731;-71
2022/07/15 14:34:39;;;;;;;3.43;1.73;;;27.30;76.10;;;;;;4950637;28;20595;-71
2022/07/15 14:37:05;;;;;;;3.13;2.10;;;27.00;76.10;;;;;;4951071;28;20220;-72